sensor_id;sensor_type;location;lat;lon;timestamp;P1;durP1;ratioP1;P2;durP2;ratioP2
81884;SDS011;71340;55.154;30.266;2023-08-07T00:00:07;13.10;;;9.90;;
81884;SDS011;71340;55.154;30.266;2023-08-07T00:02:35;14.40;;;10.02;;
81884;SDS011;71340;55.154;30.266;2023-08-07T00:05:01;13.63;;;10.20;;
81884;SDS011;71340;55.154;30.266;2023-08-07T00:07:26;14.13;;;10.33;;
81884;SDS011;71340;55.154;30.266;2023-08-07T00:09:52;13.60;;;10.50;;
81884;SDS011;71340;55.154;30.266;2023-08-07T00:12:17;19.20;;;10.53;;
81884;SDS011;71340;55.154;30.266;2023-08-07T00:14:42;14.40;;;10.07;;
81884;SDS011;71340;55.154;30.266;2023-08-07T00:17:08;16.67;;;10.10;;
81884;SDS011;71340;55.154;30.266;2023-08-07T00:19:33;12.23;;;9.90;;
81884;SDS011;71340;55.154;30.266;2023-08-07T00:21:59;15.17;;;9.83;;
81884;SDS011;71340;55.154;30.266;2023-08-07T00:24:24;20.10;;;10.00;;
81884;SDS011;71340;55.154;30.266;2023-08-07T00:26:49;12.23;;;10.33;;
81884;SDS011;71340;55.154;30.266;2023-08-07T00:29:15;12.27;;;9.67;;
81884;SDS011;71340;55.154;30.266;2023-08-07T00:31:40;13.93;;;9.70;;
81884;SDS011;71340;55.154;30.266;2023-08-07T00:34:06;14.90;;;10.13;;
81884;SDS011;71340;55.154;30.266;2023-08-07T00:36:31;12.00;;;9.70;;
81884;SDS011;71340;55.154;30.266;2023-08-07T00:38:59;13.77;;;9.73;;
81884;SDS011;71340;55.154;30.266;2023-08-07T00:41:25;15.73;;;10.35;;
81884;SDS011;71340;55.154;30.266;2023-08-07T00:43:50;13.00;;;10.00;;
81884;SDS011;71340;55.154;30.266;2023-08-07T00:46:16;13.73;;;9.60;;
81884;SDS011;71340;55.154;30.266;2023-08-07T00:48:41;13.83;;;9.87;;
81884;SDS011;71340;55.154;30.266;2023-08-07T00:51:07;13.53;;;9.77;;
81884;SDS011;71340;55.154;30.266;2023-08-07T00:53:34;16.63;;;10.45;;
81884;SDS011;71340;55.154;30.266;2023-08-07T00:56:02;17.58;;;10.48;;
81884;SDS011;71340;55.154;30.266;2023-08-07T00:58:28;11.53;;;10.10;;
81884;SDS011;71340;55.154;30.266;2023-08-07T01:00:54;13.75;;;9.98;;
81884;SDS011;71340;55.154;30.266;2023-08-07T01:03:19;14.77;;;9.97;;
81884;SDS011;71340;55.154;30.266;2023-08-07T01:05:45;12.97;;;9.80;;
81884;SDS011;71340;55.154;30.266;2023-08-07T01:08:10;12.87;;;10.03;;
81884;SDS011;71340;55.154;30.266;2023-08-07T01:13:14;12.82;;;10.07;;
81884;SDS011;71340;55.154;30.266;2023-08-07T01:15:44;12.37;;;9.97;;
81884;SDS011;71340;55.154;30.266;2023-08-07T01:18:14;13.23;;;10.95;;
81884;SDS011;71340;55.154;30.266;2023-08-07T01:20:40;16.60;;;9.60;;
81884;SDS011;71340;55.154;30.266;2023-08-07T01:23:05;10.87;;;9.43;;
81884;SDS011;71340;55.154;30.266;2023-08-07T01:25:31;10.97;;;9.30;;
81884;SDS011;71340;55.154;30.266;2023-08-07T01:28:04;14.47;;;10.10;;
81884;SDS011;71340;55.154;30.266;2023-08-07T01:30:36;12.98;;;9.30;;
81884;SDS011;71340;55.154;30.266;2023-08-07T01:33:21;11.30;;;10.07;;
81884;SDS011;71340;55.154;30.266;2023-08-07T01:35:55;11.45;;;8.98;;
81884;SDS011;71340;55.154;30.266;2023-08-07T01:38:23;12.73;;;9.70;;
81884;SDS011;71340;55.154;30.266;2023-08-07T01:40:50;13.98;;;9.75;;
81884;SDS011;71340;55.154;30.266;2023-08-07T01:43:17;14.03;;;9.60;;
81884;SDS011;71340;55.154;30.266;2023-08-07T01:45:44;12.10;;;9.98;;
81884;SDS011;71340;55.154;30.266;2023-08-07T01:48:10;13.05;;;9.50;;
81884;SDS011;71340;55.154;30.266;2023-08-07T01:50:37;21.27;;;9.67;;
81884;SDS011;71340;55.154;30.266;2023-08-07T01:53:03;15.18;;;9.20;;
81884;SDS011;71340;55.154;30.266;2023-08-07T01:55:29;14.73;;;10.20;;
81884;SDS011;71340;55.154;30.266;2023-08-07T01:57:54;16.70;;;10.10;;
81884;SDS011;71340;55.154;30.266;2023-08-07T02:00:19;12.35;;;9.07;;
81884;SDS011;71340;55.154;30.266;2023-08-07T02:02:45;14.70;;;9.10;;
81884;SDS011;71340;55.154;30.266;2023-08-07T02:05:11;13.90;;;10.45;;
81884;SDS011;71340;55.154;30.266;2023-08-07T02:07:38;13.93;;;10.30;;
81884;SDS011;71340;55.154;30.266;2023-08-07T02:10:03;11.33;;;9.07;;
81884;SDS011;71340;55.154;30.266;2023-08-07T02:12:29;14.50;;;10.25;;
81884;SDS011;71340;55.154;30.266;2023-08-07T02:14:57;14.37;;;9.80;;
81884;SDS011;71340;55.154;30.266;2023-08-07T02:17:24;14.05;;;9.32;;
81884;SDS011;71340;55.154;30.266;2023-08-07T02:19:50;14.70;;;9.40;;
81884;SDS011;71340;55.154;30.266;2023-08-07T02:22:15;14.47;;;9.40;;
81884;SDS011;71340;55.154;30.266;2023-08-07T02:24:40;10.77;;;9.30;;
81884;SDS011;71340;55.154;30.266;2023-08-07T02:27:06;12.60;;;9.73;;
81884;SDS011;71340;55.154;30.266;2023-08-07T02:29:31;14.33;;;9.87;;
81884;SDS011;71340;55.154;30.266;2023-08-07T02:31:59;15.70;;;9.63;;
81884;SDS011;71340;55.154;30.266;2023-08-07T02:34:25;12.50;;;9.63;;
81884;SDS011;71340;55.154;30.266;2023-08-07T02:36:50;11.57;;;9.33;;
81884;SDS011;71340;55.154;30.266;2023-08-07T02:39:16;9.90;;;8.90;;
81884;SDS011;71340;55.154;30.266;2023-08-07T02:41:41;21.98;;;9.45;;
81884;SDS011;71340;55.154;30.266;2023-08-07T02:44:07;16.60;;;9.87;;
81884;SDS011;71340;55.154;30.266;2023-08-07T02:46:32;13.60;;;10.07;;
81884;SDS011;71340;55.154;30.266;2023-08-07T02:48:59;18.38;;;8.90;;
81884;SDS011;71340;55.154;30.266;2023-08-07T02:51:25;17.27;;;9.23;;
81884;SDS011;71340;55.154;30.266;2023-08-07T02:53:50;12.47;;;9.97;;
81884;SDS011;71340;55.154;30.266;2023-08-07T02:56:15;14.87;;;8.73;;
81884;SDS011;71340;55.154;30.266;2023-08-07T02:58:41;12.27;;;9.63;;
81884;SDS011;71340;55.154;30.266;2023-08-07T03:01:06;16.98;;;8.80;;
81884;SDS011;71340;55.154;30.266;2023-08-07T03:03:31;13.53;;;8.77;;
81884;SDS011;71340;55.154;30.266;2023-08-07T03:05:57;15.90;;;8.97;;
81884;SDS011;71340;55.154;30.266;2023-08-07T03:08:22;14.33;;;8.83;;
81884;SDS011;71340;55.154;30.266;2023-08-07T03:10:52;13.30;;;8.55;;
81884;SDS011;71340;55.154;30.266;2023-08-07T03:13:18;11.47;;;8.87;;
81884;SDS011;71340;55.154;30.266;2023-08-07T03:15:43;12.77;;;8.47;;
81884;SDS011;71340;55.154;30.266;2023-08-07T03:18:09;17.13;;;8.60;;
81884;SDS011;71340;55.154;30.266;2023-08-07T03:20:36;11.27;;;8.60;;
81884;SDS011;71340;55.154;30.266;2023-08-07T03:23:02;14.60;;;8.80;;
81884;SDS011;71340;55.154;30.266;2023-08-07T03:25:27;12.75;;;8.23;;
81884;SDS011;71340;55.154;30.266;2023-08-07T03:27:52;14.77;;;9.47;;
81884;SDS011;71340;55.154;30.266;2023-08-07T03:30:17;10.93;;;8.63;;
81884;SDS011;71340;55.154;30.266;2023-08-07T03:32:43;11.07;;;8.17;;
81884;SDS011;71340;55.154;30.266;2023-08-07T03:35:08;14.07;;;9.23;;
81884;SDS011;71340;55.154;30.266;2023-08-07T03:37:34;13.83;;;8.83;;
81884;SDS011;71340;55.154;30.266;2023-08-07T03:39:59;12.27;;;8.83;;
81884;SDS011;71340;55.154;30.266;2023-08-07T03:42:24;12.77;;;8.63;;
81884;SDS011;71340;55.154;30.266;2023-08-07T03:44:50;11.60;;;8.32;;
81884;SDS011;71340;55.154;30.266;2023-08-07T03:47:15;13.37;;;8.37;;
81884;SDS011;71340;55.154;30.266;2023-08-07T03:49:40;17.23;;;8.50;;
81884;SDS011;71340;55.154;30.266;2023-08-07T03:52:06;11.40;;;8.50;;
81884;SDS011;71340;55.154;30.266;2023-08-07T03:54:31;15.75;;;8.70;;
81884;SDS011;71340;55.154;30.266;2023-08-07T03:56:57;11.43;;;8.50;;
81884;SDS011;71340;55.154;30.266;2023-08-07T03:59:22;17.90;;;8.50;;
81884;SDS011;71340;55.154;30.266;2023-08-07T04:01:48;10.73;;;8.13;;
81884;SDS011;71340;55.154;30.266;2023-08-07T04:04:13;11.70;;;9.20;;
81884;SDS011;71340;55.154;30.266;2023-08-07T04:06:39;14.33;;;9.30;;
81884;SDS011;71340;55.154;30.266;2023-08-07T04:09:04;13.10;;;9.00;;
81884;SDS011;71340;55.154;30.266;2023-08-07T04:11:29;10.37;;;8.57;;
81884;SDS011;71340;55.154;30.266;2023-08-07T04:13:55;12.93;;;8.53;;
81884;SDS011;71340;55.154;30.266;2023-08-07T04:16:20;11.83;;;8.67;;
81884;SDS011;71340;55.154;30.266;2023-08-07T04:18:46;14.68;;;8.43;;
81884;SDS011;71340;55.154;30.266;2023-08-07T04:21:12;13.97;;;9.00;;
81884;SDS011;71340;55.154;30.266;2023-08-07T04:23:37;11.30;;;8.33;;
81884;SDS011;71340;55.154;30.266;2023-08-07T04:26:02;13.23;;;8.25;;
81884;SDS011;71340;55.154;30.266;2023-08-07T04:28:28;12.67;;;8.13;;
81884;SDS011;71340;55.154;30.266;2023-08-07T04:30:54;13.00;;;7.77;;
81884;SDS011;71340;55.154;30.266;2023-08-07T04:33:20;14.67;;;8.07;;
81884;SDS011;71340;55.154;30.266;2023-08-07T04:35:46;10.00;;;7.72;;
81884;SDS011;71340;55.154;30.266;2023-08-07T04:38:12;12.10;;;8.57;;
81884;SDS011;71340;55.154;30.266;2023-08-07T04:40:43;9.60;;;7.83;;
81884;SDS011;71340;55.154;30.266;2023-08-07T04:43:12;9.20;;;7.38;;
81884;SDS011;71340;55.154;30.266;2023-08-07T04:45:41;12.45;;;8.38;;
81884;SDS011;71340;55.154;30.266;2023-08-07T04:48:07;10.40;;;8.13;;
81884;SDS011;71340;55.154;30.266;2023-08-07T04:50:33;10.88;;;8.80;;
81884;SDS011;71340;55.154;30.266;2023-08-07T04:52:58;11.57;;;7.90;;
81884;SDS011;71340;55.154;30.266;2023-08-07T04:55:23;12.50;;;7.57;;
81884;SDS011;71340;55.154;30.266;2023-08-07T04:57:50;12.40;;;7.70;;
81884;SDS011;71340;55.154;30.266;2023-08-07T05:00:19;13.02;;;8.02;;
81884;SDS011;71340;55.154;30.266;2023-08-07T05:02:44;14.00;;;8.00;;
81884;SDS011;71340;55.154;30.266;2023-08-07T05:05:10;11.77;;;8.33;;
81884;SDS011;71340;55.154;30.266;2023-08-07T05:07:35;11.82;;;8.20;;
81884;SDS011;71340;55.154;30.266;2023-08-07T05:10:01;14.20;;;8.07;;
81884;SDS011;71340;55.154;30.266;2023-08-07T05:12:27;11.52;;;7.45;;
81884;SDS011;71340;55.154;30.266;2023-08-07T05:14:53;14.13;;;7.70;;
81884;SDS011;71340;55.154;30.266;2023-08-07T05:17:18;10.27;;;7.50;;
81884;SDS011;71340;55.154;30.266;2023-08-07T05:19:44;11.53;;;8.13;;
81884;SDS011;71340;55.154;30.266;2023-08-07T05:22:09;11.10;;;7.70;;
81884;SDS011;71340;55.154;30.266;2023-08-07T05:24:34;13.80;;;8.00;;
81884;SDS011;71340;55.154;30.266;2023-08-07T05:27:04;12.57;;;7.88;;
81884;SDS011;71340;55.154;30.266;2023-08-07T05:29:31;12.27;;;7.63;;
81884;SDS011;71340;55.154;30.266;2023-08-07T05:31:56;13.53;;;8.00;;
81884;SDS011;71340;55.154;30.266;2023-08-07T05:34:21;10.13;;;7.53;;
81884;SDS011;71340;55.154;30.266;2023-08-07T05:36:47;11.10;;;7.72;;
81884;SDS011;71340;55.154;30.266;2023-08-07T05:39:12;10.40;;;7.73;;
81884;SDS011;71340;55.154;30.266;2023-08-07T05:41:38;10.93;;;7.50;;
81884;SDS011;71340;55.154;30.266;2023-08-07T05:44:04;13.40;;;7.75;;
81884;SDS011;71340;55.154;30.266;2023-08-07T05:46:30;12.38;;;7.40;;
81884;SDS011;71340;55.154;30.266;2023-08-07T05:48:56;13.30;;;7.40;;
81884;SDS011;71340;55.154;30.266;2023-08-07T05:51:21;12.27;;;6.90;;
81884;SDS011;71340;55.154;30.266;2023-08-07T05:53:46;11.27;;;7.30;;
81884;SDS011;71340;55.154;30.266;2023-08-07T05:56:12;12.70;;;7.67;;
81884;SDS011;71340;55.154;30.266;2023-08-07T05:58:37;10.52;;;7.28;;
81884;SDS011;71340;55.154;30.266;2023-08-07T06:01:03;12.10;;;7.27;;
81884;SDS011;71340;55.154;30.266;2023-08-07T06:03:28;9.03;;;6.90;;
81884;SDS011;71340;55.154;30.266;2023-08-07T06:05:53;8.33;;;7.37;;
81884;SDS011;71340;55.154;30.266;2023-08-07T06:08:19;12.80;;;7.07;;
81884;SDS011;71340;55.154;30.266;2023-08-07T06:10:44;9.20;;;7.13;;
81884;SDS011;71340;55.154;30.266;2023-08-07T06:13:10;11.18;;;7.22;;
81884;SDS011;71340;55.154;30.266;2023-08-07T06:15:35;14.60;;;7.20;;
81884;SDS011;71340;55.154;30.266;2023-08-07T06:18:00;9.77;;;7.30;;
81884;SDS011;71340;55.154;30.266;2023-08-07T06:20:26;14.57;;;6.83;;
81884;SDS011;71340;55.154;30.266;2023-08-07T06:22:51;9.60;;;6.93;;
81884;SDS011;71340;55.154;30.266;2023-08-07T06:25:17;7.72;;;6.80;;
81884;SDS011;71340;55.154;30.266;2023-08-07T06:27:44;14.30;;;7.50;;
81884;SDS011;71340;55.154;30.266;2023-08-07T06:30:10;11.75;;;7.63;;
81884;SDS011;71340;55.154;30.266;2023-08-07T06:32:36;12.80;;;7.03;;
81884;SDS011;71340;55.154;30.266;2023-08-07T06:35:02;11.75;;;6.85;;
81884;SDS011;71340;55.154;30.266;2023-08-07T06:37:29;9.45;;;7.03;;
81884;SDS011;71340;55.154;30.266;2023-08-07T06:39:54;8.33;;;6.53;;
81884;SDS011;71340;55.154;30.266;2023-08-07T06:42:20;13.37;;;6.97;;
81884;SDS011;71340;55.154;30.266;2023-08-07T06:44:45;18.73;;;7.30;;
81884;SDS011;71340;55.154;30.266;2023-08-07T06:47:10;14.07;;;6.97;;
81884;SDS011;71340;55.154;30.266;2023-08-07T06:49:36;14.10;;;6.87;;
81884;SDS011;71340;55.154;30.266;2023-08-07T06:52:01;9.43;;;6.63;;
81884;SDS011;71340;55.154;30.266;2023-08-07T06:54:27;10.60;;;6.65;;
81884;SDS011;71340;55.154;30.266;2023-08-07T06:56:52;15.23;;;6.63;;
81884;SDS011;71340;55.154;30.266;2023-08-07T06:59:18;12.65;;;6.75;;
81884;SDS011;71340;55.154;30.266;2023-08-07T07:01:43;10.50;;;7.43;;
81884;SDS011;71340;55.154;30.266;2023-08-07T07:04:08;11.83;;;6.43;;
81884;SDS011;71340;55.154;30.266;2023-08-07T07:06:34;8.87;;;6.07;;
81884;SDS011;71340;55.154;30.266;2023-08-07T07:08:59;13.07;;;6.43;;
81884;SDS011;71340;55.154;30.266;2023-08-07T07:11:25;13.90;;;6.50;;
81884;SDS011;71340;55.154;30.266;2023-08-07T07:13:51;11.25;;;6.55;;
81884;SDS011;71340;55.154;30.266;2023-08-07T07:16:17;10.17;;;6.63;;
81884;SDS011;71340;55.154;30.266;2023-08-07T07:18:43;8.82;;;5.97;;
81884;SDS011;71340;55.154;30.266;2023-08-07T07:21:08;8.20;;;6.67;;
81884;SDS011;71340;55.154;30.266;2023-08-07T07:23:34;15.00;;;7.13;;
81884;SDS011;71340;55.154;30.266;2023-08-07T07:25:59;11.10;;;6.17;;
81884;SDS011;71340;55.154;30.266;2023-08-07T07:28:24;15.38;;;6.40;;
81884;SDS011;71340;55.154;30.266;2023-08-07T07:30:50;12.93;;;6.20;;
81884;SDS011;71340;55.154;30.266;2023-08-07T07:33:15;11.40;;;6.40;;
81884;SDS011;71340;55.154;30.266;2023-08-07T07:35:41;13.75;;;6.10;;
81884;SDS011;71340;55.154;30.266;2023-08-07T07:38:07;9.17;;;6.13;;
81884;SDS011;71340;55.154;30.266;2023-08-07T07:40:33;12.63;;;6.33;;
81884;SDS011;71340;55.154;30.266;2023-08-07T07:42:59;12.82;;;5.80;;
81884;SDS011;71340;55.154;30.266;2023-08-07T07:45:24;9.60;;;6.57;;
81884;SDS011;71340;55.154;30.266;2023-08-07T07:47:50;12.57;;;6.00;;
81884;SDS011;71340;55.154;30.266;2023-08-07T07:50:15;12.10;;;5.80;;
81884;SDS011;71340;55.154;30.266;2023-08-07T07:52:41;14.68;;;6.00;;
81884;SDS011;71340;55.154;30.266;2023-08-07T07:55:06;10.30;;;5.70;;
81884;SDS011;71340;55.154;30.266;2023-08-07T07:57:34;13.05;;;5.68;;
81884;SDS011;71340;55.154;30.266;2023-08-07T07:59:59;12.50;;;6.23;;
81884;SDS011;71340;55.154;30.266;2023-08-07T08:02:26;13.23;;;5.95;;
81884;SDS011;71340;55.154;30.266;2023-08-07T08:04:51;10.10;;;5.93;;
81884;SDS011;71340;55.154;30.266;2023-08-07T08:07:17;8.87;;;5.50;;
81884;SDS011;71340;55.154;30.266;2023-08-07T08:09:43;8.40;;;5.90;;
81884;SDS011;71340;55.154;30.266;2023-08-07T08:12:08;15.33;;;6.37;;
81884;SDS011;71340;55.154;30.266;2023-08-07T08:14:34;12.95;;;6.18;;
81884;SDS011;71340;55.154;30.266;2023-08-07T08:17:00;9.47;;;5.63;;
81884;SDS011;71340;55.154;30.266;2023-08-07T08:19:25;9.77;;;5.60;;
81884;SDS011;71340;55.154;30.266;2023-08-07T08:21:50;11.57;;;5.90;;
81884;SDS011;71340;55.154;30.266;2023-08-07T08:24:16;10.03;;;5.80;;
81884;SDS011;71340;55.154;30.266;2023-08-07T08:26:41;9.43;;;5.75;;
81884;SDS011;71340;55.154;30.266;2023-08-07T08:29:06;9.67;;;5.90;;
81884;SDS011;71340;55.154;30.266;2023-08-07T08:31:33;17.37;;;6.00;;
81884;SDS011;71340;55.154;30.266;2023-08-07T08:33:59;14.90;;;5.70;;
81884;SDS011;71340;55.154;30.266;2023-08-07T08:36:24;12.02;;;5.68;;
81884;SDS011;71340;55.154;30.266;2023-08-07T08:38:50;11.53;;;5.97;;
81884;SDS011;71340;55.154;30.266;2023-08-07T08:41:16;8.60;;;5.50;;
81884;SDS011;71340;55.154;30.266;2023-08-07T08:43:43;10.87;;;5.63;;
81884;SDS011;71340;55.154;30.266;2023-08-07T08:46:10;10.98;;;5.80;;
81884;SDS011;71340;55.154;30.266;2023-08-07T08:48:39;11.57;;;5.60;;
81884;SDS011;71340;55.154;30.266;2023-08-07T08:51:07;9.83;;;6.00;;
81884;SDS011;71340;55.154;30.266;2023-08-07T08:53:33;11.52;;;5.60;;
81884;SDS011;71340;55.154;30.266;2023-08-07T08:55:59;10.23;;;5.47;;
81884;SDS011;71340;55.154;30.266;2023-08-07T08:58:26;9.18;;;5.47;;
81884;SDS011;71340;55.154;30.266;2023-08-07T09:00:53;11.82;;;5.60;;
81884;SDS011;71340;55.154;30.266;2023-08-07T09:03:18;13.57;;;5.40;;
81884;SDS011;71340;55.154;30.266;2023-08-07T09:05:44;14.13;;;6.10;;
81884;SDS011;71340;55.154;30.266;2023-08-07T09:08:12;8.77;;;5.72;;
81884;SDS011;71340;55.154;30.266;2023-08-07T09:10:37;16.42;;;5.70;;
81884;SDS011;71340;55.154;30.266;2023-08-07T09:13:04;12.90;;;5.73;;
81884;SDS011;71340;55.154;30.266;2023-08-07T09:15:34;9.40;;;5.10;;
81884;SDS011;71340;55.154;30.266;2023-08-07T09:18:02;12.63;;;5.43;;
81884;SDS011;71340;55.154;30.266;2023-08-07T09:20:32;5.87;;;5.07;;
81884;SDS011;71340;55.154;30.266;2023-08-07T09:22:59;13.40;;;5.30;;
81884;SDS011;71340;55.154;30.266;2023-08-07T09:25:28;12.90;;;5.72;;
81884;SDS011;71340;55.154;30.266;2023-08-07T09:27:56;14.20;;;5.53;;
81884;SDS011;71340;55.154;30.266;2023-08-07T09:30:27;11.38;;;5.70;;
81884;SDS011;71340;55.154;30.266;2023-08-07T09:32:54;11.52;;;5.45;;
81884;SDS011;71340;55.154;30.266;2023-08-07T09:35:21;11.83;;;5.77;;
81884;SDS011;71340;55.154;30.266;2023-08-07T09:37:47;13.98;;;5.70;;
81884;SDS011;71340;55.154;30.266;2023-08-07T09:40:13;9.53;;;5.60;;
81884;SDS011;71340;55.154;30.266;2023-08-07T09:42:40;7.70;;;5.40;;
81884;SDS011;71340;55.154;30.266;2023-08-07T09:45:19;12.00;;;5.50;;
81884;SDS011;71340;55.154;30.266;2023-08-07T09:48:04;11.70;;;5.30;;
81884;SDS011;71340;55.154;30.266;2023-08-07T09:50:32;12.38;;;5.03;;
81884;SDS011;71340;55.154;30.266;2023-08-07T09:52:58;11.37;;;5.60;;
81884;SDS011;71340;55.154;30.266;2023-08-07T09:55:24;10.18;;;5.10;;
81884;SDS011;71340;55.154;30.266;2023-08-07T09:57:50;11.93;;;6.07;;
81884;SDS011;71340;55.154;30.266;2023-08-07T10:00:17;15.65;;;6.07;;
81884;SDS011;71340;55.154;30.266;2023-08-07T10:02:45;18.30;;;5.60;;
81884;SDS011;71340;55.154;30.266;2023-08-07T10:05:11;15.05;;;5.65;;
81884;SDS011;71340;55.154;30.266;2023-08-07T10:07:37;10.85;;;5.40;;
81884;SDS011;71340;55.154;30.266;2023-08-07T10:10:04;12.70;;;5.63;;
81884;SDS011;71340;55.154;30.266;2023-08-07T10:12:30;7.03;;;5.30;;
81884;SDS011;71340;55.154;30.266;2023-08-07T10:14:56;12.55;;;5.30;;
81884;SDS011;71340;55.154;30.266;2023-08-07T10:17:24;10.37;;;5.73;;
81884;SDS011;71340;55.154;30.266;2023-08-07T10:19:50;11.40;;;5.32;;
81884;SDS011;71340;55.154;30.266;2023-08-07T10:22:16;13.50;;;5.70;;
81884;SDS011;71340;55.154;30.266;2023-08-07T10:24:43;11.73;;;5.30;;
81884;SDS011;71340;55.154;30.266;2023-08-07T10:27:12;8.35;;;5.00;;
81884;SDS011;71340;55.154;30.266;2023-08-07T10:29:40;9.90;;;5.28;;
81884;SDS011;71340;55.154;30.266;2023-08-07T10:32:07;13.40;;;5.50;;
81884;SDS011;71340;55.154;30.266;2023-08-07T10:34:33;14.40;;;5.57;;
81884;SDS011;71340;55.154;30.266;2023-08-07T10:36:59;12.98;;;5.63;;
81884;SDS011;71340;55.154;30.266;2023-08-07T10:39:24;17.63;;;5.20;;
81884;SDS011;71340;55.154;30.266;2023-08-07T10:41:52;15.40;;;5.50;;
81884;SDS011;71340;55.154;30.266;2023-08-07T10:44:23;14.80;;;5.32;;
81884;SDS011;71340;55.154;30.266;2023-08-07T10:46:53;14.63;;;6.03;;
81884;SDS011;71340;55.154;30.266;2023-08-07T10:49:37;10.73;;;4.87;;
81884;SDS011;71340;55.154;30.266;2023-08-07T10:52:14;8.82;;;4.90;;
81884;SDS011;71340;55.154;30.266;2023-08-07T10:54:40;10.02;;;5.38;;
81884;SDS011;71340;55.154;30.266;2023-08-07T10:57:11;18.33;;;5.73;;
81884;SDS011;71340;55.154;30.266;2023-08-07T11:02:24;9.75;;;5.60;;
81884;SDS011;71340;55.154;30.266;2023-08-07T11:04:51;18.07;;;5.80;;
81884;SDS011;71340;55.154;30.266;2023-08-07T11:07:27;15.85;;;5.70;;
81884;SDS011;71340;55.154;30.266;2023-08-07T11:09:53;17.20;;;5.50;;
81884;SDS011;71340;55.154;30.266;2023-08-07T11:12:20;11.13;;;5.25;;
81884;SDS011;71340;55.154;30.266;2023-08-07T11:14:45;15.70;;;5.53;;
81884;SDS011;71340;55.154;30.266;2023-08-07T11:17:12;11.88;;;5.47;;
81884;SDS011;71340;55.154;30.266;2023-08-07T11:19:37;16.77;;;5.70;;
81884;SDS011;71340;55.154;30.266;2023-08-07T11:22:03;11.45;;;5.13;;
81884;SDS011;71340;55.154;30.266;2023-08-07T11:24:29;8.85;;;5.47;;
81884;SDS011;71340;55.154;30.266;2023-08-07T11:26:55;11.33;;;5.30;;
81884;SDS011;71340;55.154;30.266;2023-08-07T11:29:21;15.97;;;5.60;;
81884;SDS011;71340;55.154;30.266;2023-08-07T11:31:49;17.35;;;5.28;;
81884;SDS011;71340;55.154;30.266;2023-08-07T11:34:18;11.93;;;5.72;;
81884;SDS011;71340;55.154;30.266;2023-08-07T11:36:44;11.57;;;5.10;;
81884;SDS011;71340;55.154;30.266;2023-08-07T11:39:11;12.02;;;4.97;;
81884;SDS011;71340;55.154;30.266;2023-08-07T11:41:37;12.95;;;5.30;;
81884;SDS011;71340;55.154;30.266;2023-08-07T11:44:02;21.27;;;5.07;;
81884;SDS011;71340;55.154;30.266;2023-08-07T11:46:28;15.23;;;5.63;;
81884;SDS011;71340;55.154;30.266;2023-08-07T11:48:53;11.60;;;5.40;;
81884;SDS011;71340;55.154;30.266;2023-08-07T11:51:20;17.30;;;5.70;;
81884;SDS011;71340;55.154;30.266;2023-08-07T11:53:46;24.43;;;5.47;;
81884;SDS011;71340;55.154;30.266;2023-08-07T11:56:12;16.43;;;5.20;;
81884;SDS011;71340;55.154;30.266;2023-08-07T11:58:46;13.27;;;5.07;;
81884;SDS011;71340;55.154;30.266;2023-08-07T12:01:13;15.73;;;6.40;;
81884;SDS011;71340;55.154;30.266;2023-08-07T12:03:52;13.47;;;5.30;;
81884;SDS011;71340;55.154;30.266;2023-08-07T12:06:20;20.25;;;5.97;;
81884;SDS011;71340;55.154;30.266;2023-08-07T12:08:47;11.70;;;5.50;;
81884;SDS011;71340;55.154;30.266;2023-08-07T12:11:14;24.93;;;5.97;;
81884;SDS011;71340;55.154;30.266;2023-08-07T12:13:43;14.27;;;5.70;;
81884;SDS011;71340;55.154;30.266;2023-08-07T12:16:10;13.20;;;5.72;;
81884;SDS011;71340;55.154;30.266;2023-08-07T12:18:42;13.83;;;5.23;;
81884;SDS011;71340;55.154;30.266;2023-08-07T12:21:09;14.82;;;5.47;;
81884;SDS011;71340;55.154;30.266;2023-08-07T12:23:34;13.40;;;6.03;;
81884;SDS011;71340;55.154;30.266;2023-08-07T12:26:01;14.80;;;5.47;;
81884;SDS011;71340;55.154;30.266;2023-08-07T12:28:27;11.82;;;5.50;;
81884;SDS011;71340;55.154;30.266;2023-08-07T12:30:52;13.00;;;5.40;;
81884;SDS011;71340;55.154;30.266;2023-08-07T12:33:18;13.90;;;5.60;;
81884;SDS011;71340;55.154;30.266;2023-08-07T12:35:44;13.80;;;5.70;;
81884;SDS011;71340;55.154;30.266;2023-08-07T12:38:10;18.97;;;6.47;;
81884;SDS011;71340;55.154;30.266;2023-08-07T12:40:36;20.10;;;5.40;;
81884;SDS011;71340;55.154;30.266;2023-08-07T12:43:05;15.55;;;5.43;;
81884;SDS011;71340;55.154;30.266;2023-08-07T12:45:31;15.80;;;5.47;;
81884;SDS011;71340;55.154;30.266;2023-08-07T12:47:57;19.52;;;5.55;;
81884;SDS011;71340;55.154;30.266;2023-08-07T12:50:22;21.65;;;5.68;;
81884;SDS011;71340;55.154;30.266;2023-08-07T12:52:48;13.27;;;5.40;;
81884;SDS011;71340;55.154;30.266;2023-08-07T12:55:13;15.83;;;5.50;;
81884;SDS011;71340;55.154;30.266;2023-08-07T12:57:42;22.37;;;5.80;;
81884;SDS011;71340;55.154;30.266;2023-08-07T13:00:08;15.00;;;5.05;;
81884;SDS011;71340;55.154;30.266;2023-08-07T13:02:37;12.93;;;5.47;;
81884;SDS011;71340;55.154;30.266;2023-08-07T13:05:04;18.67;;;5.70;;
81884;SDS011;71340;55.154;30.266;2023-08-07T13:07:30;13.17;;;5.30;;
81884;SDS011;71340;55.154;30.266;2023-08-07T13:09:55;19.90;;;5.13;;
81884;SDS011;71340;55.154;30.266;2023-08-07T13:12:22;21.13;;;5.75;;
81884;SDS011;71340;55.154;30.266;2023-08-07T13:14:47;22.57;;;5.73;;
81884;SDS011;71340;55.154;30.266;2023-08-07T13:17:12;14.25;;;5.20;;
81884;SDS011;71340;55.154;30.266;2023-08-07T13:19:38;23.77;;;5.67;;
81884;SDS011;71340;55.154;30.266;2023-08-07T13:22:03;18.07;;;5.27;;
81884;SDS011;71340;55.154;30.266;2023-08-07T13:24:29;17.37;;;5.67;;
81884;SDS011;71340;55.154;30.266;2023-08-07T13:26:54;20.33;;;5.82;;
81884;SDS011;71340;55.154;30.266;2023-08-07T13:29:20;19.20;;;5.50;;
81884;SDS011;71340;55.154;30.266;2023-08-07T13:31:46;24.83;;;5.63;;
81884;SDS011;71340;55.154;30.266;2023-08-07T13:34:13;13.02;;;5.38;;
81884;SDS011;71340;55.154;30.266;2023-08-07T13:36:38;12.27;;;4.90;;
81884;SDS011;71340;55.154;30.266;2023-08-07T13:39:04;15.27;;;5.45;;
81884;SDS011;71340;55.154;30.266;2023-08-07T13:41:31;23.33;;;5.53;;
81884;SDS011;71340;55.154;30.266;2023-08-07T13:43:57;24.30;;;5.85;;
81884;SDS011;71340;55.154;30.266;2023-08-07T13:46:23;18.55;;;5.85;;
81884;SDS011;71340;55.154;30.266;2023-08-07T13:48:48;15.53;;;5.27;;
81884;SDS011;71340;55.154;30.266;2023-08-07T13:51:13;15.20;;;5.50;;
81884;SDS011;71340;55.154;30.266;2023-08-07T13:53:39;13.05;;;5.75;;
81884;SDS011;71340;55.154;30.266;2023-08-07T13:56:05;12.50;;;5.17;;
81884;SDS011;71340;55.154;30.266;2023-08-07T13:58:31;17.20;;;5.55;;
81884;SDS011;71340;55.154;30.266;2023-08-07T14:00:56;13.77;;;5.37;;
81884;SDS011;71340;55.154;30.266;2023-08-07T14:03:22;14.37;;;5.40;;
81884;SDS011;71340;55.154;30.266;2023-08-07T14:05:48;14.87;;;5.40;;
81884;SDS011;71340;55.154;30.266;2023-08-07T14:08:15;15.87;;;5.67;;
81884;SDS011;71340;55.154;30.266;2023-08-07T14:10:41;16.65;;;5.30;;
81884;SDS011;71340;55.154;30.266;2023-08-07T14:13:06;16.13;;;5.50;;
81884;SDS011;71340;55.154;30.266;2023-08-07T14:15:32;17.23;;;4.50;;
81884;SDS011;71340;55.154;30.266;2023-08-07T14:17:57;17.97;;;4.33;;
81884;SDS011;71340;55.154;30.266;2023-08-07T14:20:23;17.83;;;4.53;;